Inlet Island, Washington
Current Conditions -  °F | °C
As of 3:58 PM on Saturday 25 Oct 2014 (Local Time) from KTCM Reporting Station
Broken Clouds Broken Clouds  
Wind Chill: 60°   Ceiling: 5000
Heat Index: 60°   Visibility: 10mi
Dew Point: 52°   Wind: 9mph
Humidity: 76%   Direction: 180°S
Pressure: 29.29"   Gusts: 16mph
Location:  47.1874°N, 122.164°W
Report Text: KTCM 252258Z AUTO 18008G14KT 10SM BKN050 BKN070 BKN110 15/11 A2929 RMK AO2 RAE2239 SLP922 P0003 T01540111 $
Loading
Personal Weather Stations






























Interactive Weather Map
Tropical Storm Tracking
New forecast layout! Learn more

10-Day Weather Forecast

Advertisements
Track Severe Weather on mobile